This is the latest recevied weather packets stored in our database for station/object K3HW. If no packets are shown the sender has not sent any weather packets the latest 10 day(s).
| Time | Temp. | Humidity | Pressure | Rain* | Wind** | Luminosity | Snow |
|---|---|---|---|---|---|---|---|
| 1777991171 | 23.89° C | 47% | 1014.2 hPa | 0 mm | - | 81 W/m² | - |
| 1777990868 | 23.33° C | 48% | 1014.6 hPa | 0 mm | - | 82 W/m² | - |
| 1777990566 | 22.78° C | 51% | 1014.5 hPa | 0 mm | - | 65 W/m² | - |
| 1777989959 | 22.22° C | 51% | 1014.6 hPa | 0 mm | - | 118 W/m² | - |
| 1777989656 | 22.22° C | 51% | 1014.9 hPa | 0 mm | - | 129 W/m² | - |
| 1777988442 | 21.11° C | 55% | 1015 hPa | 0 mm | - | 85 W/m² | - |
| 1777988139 | 20.56° C | 55% | 1014.9 hPa | 0 mm | - | 119 W/m² | - |
| 1777987834 | 20.56° C | 55% | 1015 hPa | 0 mm | - | 104 W/m² | - |
| 1777987531 | 20° C | 57% | 1015.1 hPa | 0 mm | - | 88 W/m² | - |
| 1777987229 | 20° C | 56% | 1015.1 hPa | 0 mm | - | 87 W/m² | - |
| 1777986925 | 20.56° C | 59% | 1015 hPa | 0 mm | - | 90 W/m² | - |
| 1777986624 | 20° C | 56% | 1015 hPa | 0 mm | - | 101 W/m² | - |
| 1777984806 | 18.89° C | 59% | 1015.1 hPa | 0 mm | - | 45 W/m² | - |
| 1777984502 | 18.89° C | 59% | 1015.2 hPa | 0 mm | - | 44 W/m² | - |
| 1777984198 | 18.89° C | 60% | 1015.1 hPa | 0 mm | - | 46 W/m² | - |
| 1777983895 | 18.33° C | 60% | 1014.9 hPa | 0 mm | - | 44 W/m² | - |
| 1777982985 | 17.78° C | 61% | 1014.7 hPa | 0 mm | - | 47 W/m² | - |
| 1777982682 | 17.78° C | 61% | 1014.6 hPa | 0 mm | - | 38 W/m² | - |
| 1777981168 | 17.22° C | 63% | 1014.6 hPa | 0 mm | - | 30 W/m² | - |
| 1777980865 | 17.22° C | 63% | 1014.8 hPa | 0 mm | - | 32 W/m² | - |
| 1777980560 | 17.22° C | 64% | 1014.5 hPa | 0 mm | - | 29 W/m² | - |
| 1777980258 | 16.67° C | 64% | 1014.4 hPa | 0 mm | - | 53 W/m² | - |
| 1777979954 | 16.67° C | 66% | 1014.6 hPa | 0 mm | - | 37 W/m² | - |
| 1777979649 | 16.11° C | 66% | 1014.4 hPa | 0 mm | - | 43 W/m² | - |
| 1777979042 | 14.44° C | 71% | 1014.3 hPa | 0 mm | - | 26 W/m² | - |
* Rain latest hour (hover to see other rain measurements)
** Current wind speed in m/s (hover to see current wind gust speed)